Time;durP1;ratioP1;P1;durP2;ratioP2;P2;SDS_P1;SDS_P2;PMS_P1;PMS_P2;Temp;Humidity;BMP_temperature;BMP_pressure;BME280_temperature;BME280_humidity;BME280_pressure;Samples;Min_cycle;Max_cycle;Signal;HPM_P1;HPM_P2
2021/10/22 00:06:18;;;;;;;1.50;0.80;;;;;;;9.10;100.00;99206.44;20959148;28;20415;-60
2021/10/22 00:16:22;;;;;;;3.33;0.90;;;;;;;9.12;100.00;99209.84;20939606;28;20241;-59
2021/10/22 00:26:29;;;;;;;2.23;0.60;;;;;;;9.13;100.00;99223.03;21006706;27;20716;-60
2021/10/22 00:36:33;;;;;;;0.97;0.80;;;;;;;9.03;100.00;99228.19;21044803;27;20234;-59
2021/10/22 00:46:38;;;;;;;0.60;0.57;;;;;;;9.06;100.00;99216.44;21043293;27;20230;-59
2021/10/22 00:56:42;;;;;;;1.20;0.50;;;;;;;9.09;100.00;99242.00;20973120;27;20245;-60
2021/10/22 01:06:51;;;;;;;1.43;0.90;;;;;;;9.17;100.00;99267.09;20981457;28;20702;-60
2021/10/22 01:16:55;;;;;;;1.47;0.73;;;;;;;9.19;100.00;99290.91;20974292;28;20230;-61
2021/10/22 01:27:01;;;;;;;1.23;0.73;;;;;;;9.19;100.00;99286.41;20973167;28;20243;-60
2021/10/22 01:37:04;;;;;;;1.20;0.50;;;;;;;9.05;99.04;99307.06;20980003;28;20236;-61
2021/10/22 02:17:00;;;;;;;3.30;1.10;;;;;;;8.20;100.00;99338.00;21163654;27;20659;-60
2021/10/22 02:27:08;;;;;;;4.47;1.00;;;;;;;8.17;100.00;99352.34;21147587;27;20310;-62
2021/10/22 02:37:13;;;;;;;4.40;1.30;;;;;;;8.37;100.00;99376.72;21170230;27;20305;-60
2021/10/22 02:47:17;;;;;;;3.27;1.07;;;;;;;8.52;100.00;99359.69;21097645;27;20602;-61
2021/10/22 02:57:22;;;;;;;2.93;0.97;;;;;;;8.69;100.00;99377.94;21119479;27;20228;-60
2021/10/22 03:07:26;;;;;;;4.93;1.47;;;;;;;8.88;100.00;99378.31;21121925;27;20318;-61
2021/10/22 03:17:31;;;;;;;5.90;1.30;;;;;;;8.84;100.00;99395.44;21110620;27;20215;-60
2021/10/22 03:27:35;;;;;;;6.43;1.30;;;;;;;8.79;100.00;99431.34;21074229;27;20248;-61
2021/10/22 03:37:40;;;;;;;4.93;1.80;;;;;;;8.74;100.00;99434.31;21046955;28;20228;-60
2021/10/22 03:47:44;;;;;;;6.90;1.73;;;;;;;8.65;100.00;99472.19;21069291;28;20230;-60
2021/10/22 03:57:49;;;;;;;6.60;1.53;;;;;;;8.57;100.00;99437.31;21027394;28;20229;-60
2021/10/22 04:07:53;;;;;;;3.93;1.33;;;;;;;8.30;100.00;99459.50;21067257;28;20229;-60
2021/10/22 04:17:59;;;;;;;3.77;1.67;;;;;;;7.89;100.00;99506.59;21049385;28;20258;-61
2021/10/22 04:28:04;;;;;;;8.63;2.07;;;;;;;7.66;100.00;99494.84;21051353;28;20292;-60
2021/10/22 04:58:08;;;;;;;6.00;1.37;;;;;;;7.13;100.00;99524.81;21059389;27;20562;-61
2021/10/22 05:18:32;;;;;;;5.60;1.70;;;;;;;7.11;100.00;99535.56;21098564;27;20307;-61
2021/10/22 05:28:36;;;;;;;5.87;1.50;;;;;;;6.92;100.00;99564.16;21015674;28;20272;-65
2021/10/22 05:38:41;;;;;;;7.40;2.00;;;;;;;6.72;100.00;99578.63;21109194;28;20584;-65
2021/10/22 05:48:45;;;;;;;5.70;1.87;;;;;;;6.73;100.00;99567.06;21103110;28;20226;-65
2021/10/22 06:08:47;;;;;;;3.97;1.80;;;;;;;6.95;100.00;99624.13;21043181;27;20608;-65
2021/10/22 06:28:51;;;;;;;3.80;1.70;;;;;;;7.26;100.00;99631.03;21143981;27;20631;-65
2021/10/22 06:38:56;;;;;;;5.80;1.70;;;;;;;7.51;100.00;99616.16;21130532;28;20300;-67
2021/10/22 06:49:03;;;;;;;25.60;4.10;;;;;;;7.85;100.00;99645.88;21109870;28;20235;-66
2021/10/22 06:59:07;;;;;;;7.03;1.80;;;;;;;8.17;100.00;99642.00;21129638;28;20242;-65
2021/10/22 07:09:12;;;;;;;2.93;1.67;;;;;;;8.61;100.00;99652.38;21112220;27;20278;-65
2021/10/22 07:29:19;;;;;;;19.37;2.70;;;;;;;9.40;94.06;99694.03;20874805;28;21256;-65
2021/10/22 07:39:23;;;;;;;9.70;2.50;;;;;;;9.46;88.75;99663.44;20877886;28;20826;-66
2021/10/22 07:49:47;;;;;;;3.67;1.77;;;;;;;10.14;89.88;99703.84;20866684;28;20364;-66
2021/10/22 07:59:54;;;;;;;14.23;2.73;;;;;;;10.07;84.09;99673.25;20803413;28;20223;-65
2021/10/22 08:10:00;;;;;;;8.03;2.20;;;;;;;10.39;82.99;99729.59;20789550;28;20258;-66
2021/10/22 08:20:08;;;;;;;7.70;2.00;;;;;;;10.66;80.03;99716.03;20860544;28;20247;-67
2021/10/22 08:30:15;;;;;;;5.20;1.73;;;;;;;10.90;80.40;99743.56;20857926;28;20721;-68
2021/10/22 08:40:20;;;;;;;5.77;1.80;;;;;;;11.02;80.61;99748.00;20799643;28;20228;-67
2021/10/22 08:50:25;;;;;;;5.33;3.30;;;;;;;10.88;81.22;99734.81;20818648;28;20238;-65
2021/10/22 09:00:29;;;;;;;7.63;3.27;;;;;;;11.33;78.53;99737.66;20796175;28;20288;-65
2021/10/22 09:10:37;;;;;;;7.43;3.07;;;;;;;11.32;77.13;99746.66;20818411;28;20669;-65
2021/10/22 09:20:49;;;;;;;9.80;2.90;;;;;;;11.41;76.63;99740.59;20797855;28;20262;-65
2021/10/22 09:30:54;;;;;;;10.37;2.97;;;;;;;11.36;73.39;99746.28;20812938;28;20656;-65
2021/10/22 09:41:01;;;;;;;9.60;2.80;;;;;;;11.25;74.11;99748.06;20804906;28;20326;-65
2021/10/22 10:01:14;;;;;;;11.23;3.20;;;;;;;11.46;71.89;99749.97;21081137;27;1405013;-63
2021/10/22 10:11:18;;;;;;;5.00;2.30;;;;;;;11.49;75.25;99746.19;21028516;28;20306;-63
2021/10/22 10:21:24;;;;;;;14.20;2.67;;;;;;;11.49;70.92;99764.88;21046105;28;20235;-63
2021/10/22 10:31:31;;;;;;;7.00;2.43;;;;;;;11.27;72.16;99725.63;21022794;28;20311;-62
2021/10/22 10:51:40;;;;;;;8.40;2.37;;;;;;;11.72;71.98;99705.16;21034731;27;21180;-63
2021/10/22 11:01:54;;;;;;;6.13;2.13;;;;;;;11.50;67.54;99694.44;21046033;27;20240;-62
2021/10/22 11:12:00;;;;;;;6.57;2.07;;;;;;;11.87;69.04;99712.00;21053701;27;20324;-63
2021/10/22 11:22:09;;;;;;;5.37;1.93;;;;;;;12.26;68.60;99709.78;21038402;27;20716;-63
2021/10/22 11:32:16;;;;;;;11.57;2.00;;;;;;;12.23;63.07;99715.38;21036424;27;20340;-63
2021/10/22 11:42:24;;;;;;;5.33;1.70;;;;;;;12.34;67.76;99693.97;21030270;27;20650;-63
2021/10/22 11:52:30;;;;;;;5.83;2.30;;;;;;;12.46;65.88;99700.97;21041167;27;20229;-64
2021/10/22 12:02:34;;;;;;;4.10;1.80;;;;;;;12.25;65.60;99651.91;20989634;28;20234;-62
2021/10/22 12:12:40;;;;;;;5.13;1.60;;;;;;;12.23;68.79;99688.63;20985997;28;20224;-63
2021/10/22 12:22:48;;;;;;;7.97;2.10;;;;;;;11.76;65.88;99685.28;20962468;28;20293;-62
2021/10/22 12:32:54;;;;;;;4.97;1.60;;;;;;;11.66;68.82;99694.97;20984661;28;20226;-65
2021/10/22 12:43:10;;;;;;;5.67;2.00;;;;;;;11.53;68.90;99678.19;20964454;28;20352;-65
2021/10/22 12:53:19;;;;;;;4.13;1.93;;;;;;;11.53;70.20;99686.22;20979911;28;20736;-65
2021/10/22 13:03:22;;;;;;;5.27;1.97;;;;;;;11.50;71.58;99652.56;20969218;28;20254;-65
2021/10/22 13:24:08;;;;;;;3.73;1.80;;;;;;;11.38;71.63;99674.88;20879096;28;20243;-65
2021/10/22 13:34:13;;;;;;;3.70;1.87;;;;;;;11.35;73.35;99669.78;20868983;28;20732;-65
2021/10/22 13:44:17;;;;;;;4.37;1.87;;;;;;;11.35;72.82;99658.28;20885321;28;20231;-70
2021/10/22 13:54:41;;;;;;;3.30;1.80;;;;;;;11.25;70.99;99652.78;21005756;27;20725;-69
2021/10/22 14:04:46;;;;;;;5.80;1.77;;;;;;;11.16;72.55;99665.03;21036025;28;20372;-69
2021/10/22 14:14:55;;;;;;;4.43;2.20;;;;;;;10.97;69.69;99654.06;21041845;28;20437;-70
2021/10/22 14:25:12;;;;;;;8.13;2.20;;;;;;;10.61;70.67;99633.69;21035925;28;20232;-68
2021/10/22 14:35:17;;;;;;;7.67;2.17;;;;;;;10.40;71.82;99633.47;21052815;28;20242;-70
2021/10/22 14:45:24;;;;;;;4.47;2.13;;;;;;;10.23;75.64;99593.88;21035465;28;20230;-69
2021/10/22 14:55:37;;;;;;;3.97;1.57;;;;;;;10.20;75.99;99588.78;21058230;28;20261;-68
2021/10/22 15:05:52;;;;;;;3.67;1.63;;;;;;;10.12;74.87;99585.81;21038166;28;20229;-69
2021/10/22 15:15:58;;;;;;;5.87;2.03;;;;;;;10.22;76.78;99586.84;21050042;28;20229;-67
2021/10/22 15:26:01;;;;;;;4.77;2.70;;;;;;;10.16;76.65;99565.94;21048157;28;20226;-67
2021/10/22 15:36:08;;;;;;;5.43;2.73;;;;;;;10.11;78.02;99557.44;20971726;28;20223;-65
2021/10/22 15:46:15;;;;;;;7.80;3.00;;;;;;;10.15;76.92;99580.22;20985311;28;20716;-66
2021/10/22 15:56:22;;;;;;;6.83;2.90;;;;;;;10.23;75.98;99582.38;20965552;28;21038;-66
2021/10/22 16:06:28;;;;;;;5.17;2.97;;;;;;;10.22;76.38;99565.53;20981036;28;20223;-65
2021/10/22 16:16:55;;;;;;;7.07;3.77;;;;;;;10.21;74.99;99579.81;20963241;28;20219;-66
2021/10/22 16:26:58;;;;;;;7.43;3.50;;;;;;;10.25;75.61;99573.28;20984801;28;20234;-66
2021/10/22 16:37:04;;;;;;;5.07;2.80;;;;;;;10.30;76.41;99568.44;20971636;28;20226;-66
2021/10/22 16:47:07;;;;;;;4.77;2.73;;;;;;;10.33;75.29;99573.56;20980981;28;20230;-66
2021/10/22 16:57:12;;;;;;;7.23;2.73;;;;;;;10.34;73.42;99567.25;20969599;28;20246;-65
2021/10/22 17:07:23;;;;;;;6.67;2.70;;;;;;;10.45;74.00;99577.13;20971835;28;20230;-66
2021/10/22 17:17:30;;;;;;;6.17;2.70;;;;;;;10.46;69.98;99590.34;20974590;28;20306;-66
2021/10/22 17:27:34;;;;;;;4.83;2.33;;;;;;;10.44;67.64;99586.94;20964110;28;20699;-66
2021/10/22 17:37:41;;;;;;;11.27;2.43;;;;;;;10.11;71.07;99578.75;20904275;28;20261;-67
2021/10/22 17:47:45;;;;;;;4.30;1.97;;;;;;;10.04;75.17;99609.47;20871966;28;20239;-66
2021/10/22 18:07:50;;;;;;;5.93;2.33;;;;;;;9.52;84.06;99586.63;20862491;28;20576;-68
2021/10/22 18:17:54;;;;;;;3.47;2.20;;;;;;;9.24;91.14;99613.50;20876711;28;20310;-67
2021/10/22 18:28:04;;;;;;;6.17;1.87;;;;;;;9.13;91.32;99600.09;20805383;28;20995;-68
2021/10/22 18:38:08;;;;;;;4.97;2.30;;;;;;;9.19;90.46;99616.47;20790209;28;20234;-67
2021/10/22 18:58:12;;;;;;;4.13;2.13;;;;;;;9.23;90.72;99606.47;21117368;27;20596;-67
2021/10/22 19:08:17;;;;;;;3.07;2.10;;;;;;;9.33;88.96;99586.22;21043963;28;20645;-68
2021/10/22 19:18:22;;;;;;;4.80;2.07;;;;;;;9.54;86.37;99600.66;21019993;28;20324;-67
2021/10/22 19:28:28;;;;;;;3.50;1.80;;;;;;;9.70;87.81;99606.63;21021717;28;20228;-67
2021/10/22 19:38:35;;;;;;;6.13;1.90;;;;;;;9.55;91.89;99613.03;21043514;28;20221;-67
2021/10/22 19:48:43;;;;;;;7.43;2.30;;;;;;;9.02;100.00;99620.34;21003127;28;20255;-67
2021/10/22 19:58:51;;;;;;;4.83;2.70;;;;;;;8.74;100.00;99673.69;21106504;28;20268;-67
2021/10/22 20:08:56;;;;;;;4.50;2.33;;;;;;;8.41;100.00;99676.81;21055031;28;20333;-68
2021/10/22 20:19:02;;;;;;;5.77;2.30;;;;;;;7.88;100.00;99666.94;21052910;28;20236;-67
2021/10/22 20:29:07;;;;;;;3.27;2.10;;;;;;;7.73;100.00;99675.91;21056146;28;20298;-67
2021/10/22 20:39:14;;;;;;;4.10;1.70;;;;;;;7.67;100.00;99706.31;21053735;28;20223;-66
2021/10/22 20:59:44;;;;;;;1.33;0.80;;;;;;;7.32;100.00;99748.31;21031239;28;20272;-66
2021/10/22 21:49:50;;;;;;;2.97;1.70;;;;;;;7.11;100.00;99800.00;21064677;27;20932;-67
2021/10/22 21:59:54;;;;;;;4.87;2.07;;;;;;;6.95;100.00;99817.72;21058295;28;20223;-67
2021/10/22 22:09:59;;;;;;;3.93;2.60;;;;;;;6.78;100.00;99827.50;21057646;28;20305;-67
2021/10/22 22:20:03;;;;;;;3.57;2.40;;;;;;;6.91;100.00;99842.72;21054771;28;20314;-67
2021/10/22 22:30:11;;;;;;;3.73;2.37;;;;;;;7.12;100.00;99844.16;21056173;28;20251;-67
2021/10/22 22:50:15;;;;;;;2.93;2.20;;;;;;;6.88;100.00;99865.81;20989742;27;20610;-67
2021/10/22 23:00:19;;;;;;;2.90;2.10;;;;;;;6.54;100.00;99868.63;20974800;28;20241;-67
2021/10/22 23:10:25;;;;;;;3.80;2.63;;;;;;;6.18;100.00;99889.16;20974165;28;20227;-67
2021/10/22 23:40:21;;;;;;;3.00;2.47;;;;;;;5.90;100.00;99927.72;21155222;27;20626;-66
2021/10/22 23:50:25;;;;;;;3.20;2.20;;;;;;;6.08;100.00;99939.97;21142677;27;20228;-66
